sensor_id;sensor_type;location;lat;lon;timestamp;P1;durP1;ratioP1;P2;durP2;ratioP2
11078;SDS011;5592;49.234;7.268;2023-02-01T00:01:17;9.13;;;4.87;;
11078;SDS011;5592;49.234;7.268;2023-02-01T00:03:43;11.43;;;5.93;;
11078;SDS011;5592;49.234;7.268;2023-02-01T00:06:08;9.43;;;5.40;;
11078;SDS011;5592;49.234;7.268;2023-02-01T00:08:34;7.60;;;5.00;;
11078;SDS011;5592;49.234;7.268;2023-02-01T00:11:00;9.53;;;5.43;;
11078;SDS011;5592;49.234;7.268;2023-02-01T00:13:30;14.33;;;7.20;;
11078;SDS011;5592;49.234;7.268;2023-02-01T00:16:03;9.13;;;5.10;;
11078;SDS011;5592;49.234;7.268;2023-02-01T00:18:33;11.90;;;5.47;;
11078;SDS011;5592;49.234;7.268;2023-02-01T00:20:59;8.37;;;5.03;;
11078;SDS011;5592;49.234;7.268;2023-02-01T00:23:25;10.73;;;5.83;;
11078;SDS011;5592;49.234;7.268;2023-02-01T00:25:51;7.03;;;4.20;;
11078;SDS011;5592;49.234;7.268;2023-02-01T00:28:16;12.70;;;4.67;;
11078;SDS011;5592;49.234;7.268;2023-02-01T00:30:42;5.93;;;4.00;;
11078;SDS011;5592;49.234;7.268;2023-02-01T00:33:08;6.67;;;4.20;;
11078;SDS011;5592;49.234;7.268;2023-02-01T00:35:34;6.40;;;3.70;;
11078;SDS011;5592;49.234;7.268;2023-02-01T00:38:00;8.10;;;3.70;;
11078;SDS011;5592;49.234;7.268;2023-02-01T00:40:26;7.70;;;3.60;;
11078;SDS011;5592;49.234;7.268;2023-02-01T00:42:52;6.43;;;4.07;;
11078;SDS011;5592;49.234;7.268;2023-02-01T00:45:18;9.60;;;4.10;;
11078;SDS011;5592;49.234;7.268;2023-02-01T00:47:44;8.80;;;4.30;;
11078;SDS011;5592;49.234;7.268;2023-02-01T00:50:10;11.00;;;4.40;;
11078;SDS011;5592;49.234;7.268;2023-02-01T00:52:35;9.30;;;4.63;;
11078;SDS011;5592;49.234;7.268;2023-02-01T00:55:01;5.27;;;4.13;;
11078;SDS011;5592;49.234;7.268;2023-02-01T00:57:27;8.17;;;4.43;;
11078;SDS011;5592;49.234;7.268;2023-02-01T00:59:52;5.27;;;4.07;;
11078;SDS011;5592;49.234;7.268;2023-02-01T01:02:18;6.50;;;3.73;;
11078;SDS011;5592;49.234;7.268;2023-02-01T01:04:43;13.37;;;5.70;;
11078;SDS011;5592;49.234;7.268;2023-02-01T01:07:09;11.10;;;4.80;;
11078;SDS011;5592;49.234;7.268;2023-02-01T01:09:35;7.57;;;4.30;;
11078;SDS011;5592;49.234;7.268;2023-02-01T01:12:00;9.43;;;4.67;;
11078;SDS011;5592;49.234;7.268;2023-02-01T01:14:29;6.47;;;4.67;;
11078;SDS011;5592;49.234;7.268;2023-02-01T01:16:55;7.00;;;4.63;;
11078;SDS011;5592;49.234;7.268;2023-02-01T01:19:20;11.20;;;4.90;;
11078;SDS011;5592;49.234;7.268;2023-02-01T01:21:46;12.43;;;6.17;;
11078;SDS011;5592;49.234;7.268;2023-02-01T01:24:12;9.83;;;6.03;;
11078;SDS011;5592;49.234;7.268;2023-02-01T01:26:37;12.20;;;6.10;;
11078;SDS011;5592;49.234;7.268;2023-02-01T01:29:03;12.43;;;5.60;;
11078;SDS011;5592;49.234;7.268;2023-02-01T01:31:29;12.53;;;6.93;;
11078;SDS011;5592;49.234;7.268;2023-02-01T01:33:56;12.33;;;6.20;;
11078;SDS011;5592;49.234;7.268;2023-02-01T01:36:24;12.53;;;6.40;;
11078;SDS011;5592;49.234;7.268;2023-02-01T01:38:51;14.90;;;7.47;;
11078;SDS011;5592;49.234;7.268;2023-02-01T01:41:21;14.63;;;6.13;;
11078;SDS011;5592;49.234;7.268;2023-02-01T01:43:50;18.27;;;6.33;;
11078;SDS011;5592;49.234;7.268;2023-02-01T01:46:17;18.73;;;5.93;;
11078;SDS011;5592;49.234;7.268;2023-02-01T01:48:49;15.80;;;6.07;;
11078;SDS011;5592;49.234;7.268;2023-02-01T01:51:23;10.93;;;6.77;;
11078;SDS011;5592;49.234;7.268;2023-02-01T01:53:55;13.93;;;8.50;;
11078;SDS011;5592;49.234;7.268;2023-02-01T01:56:31;15.43;;;6.60;;
11078;SDS011;5592;49.234;7.268;2023-02-01T01:58:59;21.13;;;8.50;;
11078;SDS011;5592;49.234;7.268;2023-02-01T02:01:26;20.60;;;8.40;;
11078;SDS011;5592;49.234;7.268;2023-02-01T02:03:52;11.97;;;8.57;;
11078;SDS011;5592;49.234;7.268;2023-02-01T02:09:16;23.97;;;8.17;;
11078;SDS011;5592;49.234;7.268;2023-02-01T02:11:42;21.27;;;8.77;;
11078;SDS011;5592;49.234;7.268;2023-02-01T02:14:09;19.43;;;8.57;;
11078;SDS011;5592;49.234;7.268;2023-02-01T02:30:37;14.30;;;7.07;;
11078;SDS011;5592;49.234;7.268;2023-02-01T02:33:29;15.63;;;8.10;;
11078;SDS011;5592;49.234;7.268;2023-02-01T02:39:08;25.07;;;8.57;;
11078;SDS011;5592;49.234;7.268;2023-02-01T02:41:59;14.70;;;7.17;;
11078;SDS011;5592;49.234;7.268;2023-02-01T02:53:16;17.90;;;7.53;;
11078;SDS011;5592;49.234;7.268;2023-02-01T02:56:06;21.30;;;7.37;;
11078;SDS011;5592;49.234;7.268;2023-02-01T02:58:53;15.70;;;7.53;;
11078;SDS011;5592;49.234;7.268;2023-02-01T03:01:39;26.93;;;8.77;;
11078;SDS011;5592;49.234;7.268;2023-02-01T03:04:24;15.37;;;7.93;;
11078;SDS011;5592;49.234;7.268;2023-02-01T03:06:51;21.77;;;7.27;;
11078;SDS011;5592;49.234;7.268;2023-02-01T03:09:31;19.23;;;7.23;;
11078;SDS011;5592;49.234;7.268;2023-02-01T03:12:01;13.20;;;6.50;;
11078;SDS011;5592;49.234;7.268;2023-02-01T03:14:52;15.50;;;6.50;;
11078;SDS011;5592;49.234;7.268;2023-02-01T03:17:24;16.90;;;7.53;;
11078;SDS011;5592;49.234;7.268;2023-02-01T03:19:55;18.70;;;6.97;;
11078;SDS011;5592;49.234;7.268;2023-02-01T03:22:27;18.83;;;7.43;;
11078;SDS011;5592;49.234;7.268;2023-02-01T03:25:21;11.80;;;7.60;;
11078;SDS011;5592;49.234;7.268;2023-02-01T03:28:06;18.90;;;7.70;;
11078;SDS011;5592;49.234;7.268;2023-02-01T03:30:37;15.40;;;6.97;;
11078;SDS011;5592;49.234;7.268;2023-02-01T03:33:08;15.70;;;7.60;;
11078;SDS011;5592;49.234;7.268;2023-02-01T03:38:37;13.07;;;6.73;;
11078;SDS011;5592;49.234;7.268;2023-02-01T03:46:25;13.47;;;6.30;;
11078;SDS011;5592;49.234;7.268;2023-02-01T03:48:58;14.90;;;6.27;;
11078;SDS011;5592;49.234;7.268;2023-02-01T03:51:27;15.53;;;7.30;;
11078;SDS011;5592;49.234;7.268;2023-02-01T03:53:54;20.80;;;6.40;;
11078;SDS011;5592;49.234;7.268;2023-02-01T03:56:21;11.03;;;5.80;;
11078;SDS011;5592;49.234;7.268;2023-02-01T03:58:48;16.13;;;6.53;;
11078;SDS011;5592;49.234;7.268;2023-02-01T04:01:24;10.03;;;5.97;;
11078;SDS011;5592;49.234;7.268;2023-02-01T04:03:51;16.17;;;6.80;;
11078;SDS011;5592;49.234;7.268;2023-02-01T04:06:16;13.90;;;6.57;;
11078;SDS011;5592;49.234;7.268;2023-02-01T04:08:42;14.33;;;7.30;;
11078;SDS011;5592;49.234;7.268;2023-02-01T04:11:08;17.73;;;7.77;;
11078;SDS011;5592;49.234;7.268;2023-02-01T04:13:34;20.50;;;8.00;;
11078;SDS011;5592;49.234;7.268;2023-02-01T04:16:00;16.33;;;6.90;;
11078;SDS011;5592;49.234;7.268;2023-02-01T04:18:25;19.13;;;7.33;;
11078;SDS011;5592;49.234;7.268;2023-02-01T04:20:51;13.97;;;7.97;;
11078;SDS011;5592;49.234;7.268;2023-02-01T04:23:16;12.90;;;7.20;;
11078;SDS011;5592;49.234;7.268;2023-02-01T04:25:42;14.80;;;7.40;;
11078;SDS011;5592;49.234;7.268;2023-02-01T04:28:07;11.20;;;5.53;;
11078;SDS011;5592;49.234;7.268;2023-02-01T04:30:34;12.40;;;7.97;;
11078;SDS011;5592;49.234;7.268;2023-02-01T04:32:59;18.50;;;7.67;;
11078;SDS011;5592;49.234;7.268;2023-02-01T04:35:25;17.27;;;7.57;;
11078;SDS011;5592;49.234;7.268;2023-02-01T04:37:50;19.87;;;8.03;;
11078;SDS011;5592;49.234;7.268;2023-02-01T04:40:16;12.50;;;7.33;;
11078;SDS011;5592;49.234;7.268;2023-02-01T04:42:42;17.67;;;7.37;;
11078;SDS011;5592;49.234;7.268;2023-02-01T04:45:07;13.10;;;7.13;;
11078;SDS011;5592;49.234;7.268;2023-02-01T04:47:34;12.07;;;6.70;;
11078;SDS011;5592;49.234;7.268;2023-02-01T04:50:00;16.83;;;7.17;;
11078;SDS011;5592;49.234;7.268;2023-02-01T04:52:25;13.27;;;7.27;;
11078;SDS011;5592;49.234;7.268;2023-02-01T04:54:52;22.43;;;8.03;;
11078;SDS011;5592;49.234;7.268;2023-02-01T04:57:19;26.50;;;7.20;;
11078;SDS011;5592;49.234;7.268;2023-02-01T04:59:45;12.27;;;8.17;;
11078;SDS011;5592;49.234;7.268;2023-02-01T05:02:10;18.63;;;8.50;;
11078;SDS011;5592;49.234;7.268;2023-02-01T05:04:36;15.13;;;7.47;;
11078;SDS011;5592;49.234;7.268;2023-02-01T05:07:01;22.00;;;7.70;;
11078;SDS011;5592;49.234;7.268;2023-02-01T05:09:27;14.77;;;7.13;;
11078;SDS011;5592;49.234;7.268;2023-02-01T05:11:53;13.33;;;6.93;;
11078;SDS011;5592;49.234;7.268;2023-02-01T05:14:37;13.70;;;6.70;;
11078;SDS011;5592;49.234;7.268;2023-02-01T05:17:02;11.90;;;7.40;;
11078;SDS011;5592;49.234;7.268;2023-02-01T05:19:28;11.60;;;6.43;;
11078;SDS011;5592;49.234;7.268;2023-02-01T05:21:54;16.37;;;7.03;;
11078;SDS011;5592;49.234;7.268;2023-02-01T05:24:19;20.00;;;8.00;;
11078;SDS011;5592;49.234;7.268;2023-02-01T05:26:45;17.10;;;6.50;;
11078;SDS011;5592;49.234;7.268;2023-02-01T05:29:12;27.73;;;8.30;;
11078;SDS011;5592;49.234;7.268;2023-02-01T05:31:38;15.40;;;6.93;;
11078;SDS011;5592;49.234;7.268;2023-02-01T05:34:03;15.70;;;7.03;;
11078;SDS011;5592;49.234;7.268;2023-02-01T05:36:29;16.27;;;6.60;;
11078;SDS011;5592;49.234;7.268;2023-02-01T05:38:55;11.00;;;6.40;;
11078;SDS011;5592;49.234;7.268;2023-02-01T05:41:21;20.97;;;6.67;;
11078;SDS011;5592;49.234;7.268;2023-02-01T05:43:47;21.40;;;8.17;;
11078;SDS011;5592;49.234;7.268;2023-02-01T05:46:12;19.80;;;6.20;;
11078;SDS011;5592;49.234;7.268;2023-02-01T05:48:41;10.33;;;4.83;;
11078;SDS011;5592;49.234;7.268;2023-02-01T05:51:07;15.30;;;6.93;;
11078;SDS011;5592;49.234;7.268;2023-02-01T05:53:34;15.67;;;6.07;;
11078;SDS011;5592;49.234;7.268;2023-02-01T05:56:00;16.23;;;5.93;;
11078;SDS011;5592;49.234;7.268;2023-02-01T05:58:26;19.40;;;5.60;;
11078;SDS011;5592;49.234;7.268;2023-02-01T06:00:52;23.67;;;5.57;;
11078;SDS011;5592;49.234;7.268;2023-02-01T06:03:17;14.50;;;4.43;;
11078;SDS011;5592;49.234;7.268;2023-02-01T06:05:44;11.47;;;4.53;;
11078;SDS011;5592;49.234;7.268;2023-02-01T06:08:10;14.57;;;5.33;;
11078;SDS011;5592;49.234;7.268;2023-02-01T06:10:36;11.00;;;4.07;;
11078;SDS011;5592;49.234;7.268;2023-02-01T06:13:01;12.83;;;4.03;;
11078;SDS011;5592;49.234;7.268;2023-02-01T06:15:28;8.13;;;4.00;;
11078;SDS011;5592;49.234;7.268;2023-02-01T06:17:54;8.70;;;4.30;;
11078;SDS011;5592;49.234;7.268;2023-02-01T06:20:20;10.77;;;4.33;;
11078;SDS011;5592;49.234;7.268;2023-02-01T06:22:45;14.03;;;5.07;;
11078;SDS011;5592;49.234;7.268;2023-02-01T06:25:11;12.33;;;5.20;;
11078;SDS011;5592;49.234;7.268;2023-02-01T06:27:37;10.13;;;4.50;;
11078;SDS011;5592;49.234;7.268;2023-02-01T06:30:04;16.23;;;5.30;;
11078;SDS011;5592;49.234;7.268;2023-02-01T06:32:31;18.00;;;4.70;;
11078;SDS011;5592;49.234;7.268;2023-02-01T06:34:56;16.90;;;5.53;;
11078;SDS011;5592;49.234;7.268;2023-02-01T06:37:23;10.40;;;4.93;;
11078;SDS011;5592;49.234;7.268;2023-02-01T06:39:50;13.10;;;6.03;;
11078;SDS011;5592;49.234;7.268;2023-02-01T06:42:16;14.87;;;5.33;;
11078;SDS011;5592;49.234;7.268;2023-02-01T06:44:42;9.67;;;5.23;;
11078;SDS011;5592;49.234;7.268;2023-02-01T06:47:07;12.93;;;5.07;;
11078;SDS011;5592;49.234;7.268;2023-02-01T06:49:33;15.93;;;6.40;;
11078;SDS011;5592;49.234;7.268;2023-02-01T06:51:59;14.50;;;5.80;;
11078;SDS011;5592;49.234;7.268;2023-02-01T06:54:26;14.37;;;6.47;;
11078;SDS011;5592;49.234;7.268;2023-02-01T06:56:58;12.07;;;5.40;;
11078;SDS011;5592;49.234;7.268;2023-02-01T06:59:28;16.17;;;5.93;;
11078;SDS011;5592;49.234;7.268;2023-02-01T07:01:54;13.13;;;4.60;;
11078;SDS011;5592;49.234;7.268;2023-02-01T07:04:20;20.27;;;6.60;;
11078;SDS011;5592;49.234;7.268;2023-02-01T07:06:46;19.50;;;5.67;;
11078;SDS011;5592;49.234;7.268;2023-02-01T07:09:11;15.33;;;4.80;;
11078;SDS011;5592;49.234;7.268;2023-02-01T07:11:38;14.47;;;5.23;;
11078;SDS011;5592;49.234;7.268;2023-02-01T07:14:08;16.50;;;4.80;;
11078;SDS011;5592;49.234;7.268;2023-02-01T07:16:36;13.40;;;3.97;;
11078;SDS011;5592;49.234;7.268;2023-02-01T07:19:02;14.40;;;6.30;;
11078;SDS011;5592;49.234;7.268;2023-02-01T07:21:28;14.57;;;4.40;;
11078;SDS011;5592;49.234;7.268;2023-02-01T07:23:54;20.87;;;4.67;;
11078;SDS011;5592;49.234;7.268;2023-02-01T07:34:16;15.10;;;5.23;;
11078;SDS011;5592;49.234;7.268;2023-02-01T07:36:42;13.90;;;5.20;;
11078;SDS011;5592;49.234;7.268;2023-02-01T07:39:08;25.13;;;6.30;;
11078;SDS011;5592;49.234;7.268;2023-02-01T07:41:33;17.77;;;4.90;;
11078;SDS011;5592;49.234;7.268;2023-02-01T07:43:59;13.57;;;5.10;;
11078;SDS011;5592;49.234;7.268;2023-02-01T07:46:25;11.23;;;4.57;;
11078;SDS011;5592;49.234;7.268;2023-02-01T07:48:50;15.37;;;4.17;;
11078;SDS011;5592;49.234;7.268;2023-02-01T07:51:16;15.93;;;4.17;;
11078;SDS011;5592;49.234;7.268;2023-02-01T07:53:43;18.93;;;4.60;;
11078;SDS011;5592;49.234;7.268;2023-02-01T07:56:10;16.50;;;3.83;;
11078;SDS011;5592;49.234;7.268;2023-02-01T07:58:39;11.93;;;4.63;;
11078;SDS011;5592;49.234;7.268;2023-02-01T08:01:04;18.83;;;3.77;;
11078;SDS011;5592;49.234;7.268;2023-02-01T08:03:48;16.90;;;4.17;;
11078;SDS011;5592;49.234;7.268;2023-02-01T08:06:25;17.70;;;3.80;;
11078;SDS011;5592;49.234;7.268;2023-02-01T08:08:52;14.87;;;4.53;;
11078;SDS011;5592;49.234;7.268;2023-02-01T08:11:19;13.50;;;3.63;;
11078;SDS011;5592;49.234;7.268;2023-02-01T08:13:46;17.60;;;5.40;;
11078;SDS011;5592;49.234;7.268;2023-02-01T08:16:13;20.33;;;4.17;;
11078;SDS011;5592;49.234;7.268;2023-02-01T08:18:40;17.77;;;3.63;;
11078;SDS011;5592;49.234;7.268;2023-02-01T08:21:16;14.30;;;3.33;;
11078;SDS011;5592;49.234;7.268;2023-02-01T08:23:47;18.93;;;3.40;;
11078;SDS011;5592;49.234;7.268;2023-02-01T08:26:23;13.20;;;3.67;;
11078;SDS011;5592;49.234;7.268;2023-02-01T08:28:54;18.47;;;4.40;;
11078;SDS011;5592;49.234;7.268;2023-02-01T08:31:22;25.57;;;4.80;;
11078;SDS011;5592;49.234;7.268;2023-02-01T08:33:49;14.70;;;4.00;;
11078;SDS011;5592;49.234;7.268;2023-02-01T08:36:17;16.70;;;4.30;;
11078;SDS011;5592;49.234;7.268;2023-02-01T08:38:43;17.63;;;4.10;;
11078;SDS011;5592;49.234;7.268;2023-02-01T08:41:12;14.50;;;3.50;;
11078;SDS011;5592;49.234;7.268;2023-02-01T08:43:42;12.20;;;3.20;;
11078;SDS011;5592;49.234;7.268;2023-02-01T08:46:09;17.40;;;3.53;;
11078;SDS011;5592;49.234;7.268;2023-02-01T08:48:36;17.97;;;3.27;;
11078;SDS011;5592;49.234;7.268;2023-02-01T08:51:07;12.30;;;3.97;;
11078;SDS011;5592;49.234;7.268;2023-02-01T08:53:34;11.87;;;3.60;;
11078;SDS011;5592;49.234;7.268;2023-02-01T08:56:01;10.87;;;2.90;;
11078;SDS011;5592;49.234;7.268;2023-02-01T08:58:27;16.93;;;4.03;;
11078;SDS011;5592;49.234;7.268;2023-02-01T09:00:52;14.50;;;2.97;;
11078;SDS011;5592;49.234;7.268;2023-02-01T09:03:18;17.47;;;3.80;;
11078;SDS011;5592;49.234;7.268;2023-02-01T09:05:44;17.30;;;3.33;;
11078;SDS011;5592;49.234;7.268;2023-02-01T09:08:10;18.27;;;3.50;;
11078;SDS011;5592;49.234;7.268;2023-02-01T09:10:39;16.97;;;3.40;;
11078;SDS011;5592;49.234;7.268;2023-02-01T09:13:04;18.63;;;3.13;;
11078;SDS011;5592;49.234;7.268;2023-02-01T09:15:30;15.00;;;3.57;;
11078;SDS011;5592;49.234;7.268;2023-02-01T09:17:55;16.23;;;3.23;;
11078;SDS011;5592;49.234;7.268;2023-02-01T09:20:21;20.87;;;3.60;;
11078;SDS011;5592;49.234;7.268;2023-02-01T09:22:51;15.87;;;4.03;;
11078;SDS011;5592;49.234;7.268;2023-02-01T09:25:17;19.67;;;3.40;;
11078;SDS011;5592;49.234;7.268;2023-02-01T09:27:43;8.57;;;2.67;;
11078;SDS011;5592;49.234;7.268;2023-02-01T09:30:09;14.83;;;2.93;;
11078;SDS011;5592;49.234;7.268;2023-02-01T09:32:35;14.30;;;3.10;;
11078;SDS011;5592;49.234;7.268;2023-02-01T09:35:01;14.80;;;3.23;;
11078;SDS011;5592;49.234;7.268;2023-02-01T09:37:27;12.77;;;3.87;;
11078;SDS011;5592;49.234;7.268;2023-02-01T09:39:53;23.57;;;3.10;;
11078;SDS011;5592;49.234;7.268;2023-02-01T09:48:09;13.03;;;3.30;;
11078;SDS011;5592;49.234;7.268;2023-02-01T09:50:47;10.23;;;3.20;;
11078;SDS011;5592;49.234;7.268;2023-02-01T09:53:23;19.80;;;4.10;;
11078;SDS011;5592;49.234;7.268;2023-02-01T09:55:51;21.67;;;3.60;;
11078;SDS011;5592;49.234;7.268;2023-02-01T09:58:30;16.60;;;3.57;;
11078;SDS011;5592;49.234;7.268;2023-02-01T10:01:03;18.20;;;3.87;;
11078;SDS011;5592;49.234;7.268;2023-02-01T10:03:34;13.70;;;4.43;;
11078;SDS011;5592;49.234;7.268;2023-02-01T10:11:35;15.20;;;3.23;;
11078;SDS011;5592;49.234;7.268;2023-02-01T10:16:56;17.63;;;3.50;;
11078;SDS011;5592;49.234;7.268;2023-02-01T10:19:39;18.03;;;4.23;;
11078;SDS011;5592;49.234;7.268;2023-02-01T10:22:40;23.37;;;3.90;;
11078;SDS011;5592;49.234;7.268;2023-02-01T10:25:13;19.20;;;3.40;;
11078;SDS011;5592;49.234;7.268;2023-02-01T10:27:42;9.53;;;2.60;;
11078;SDS011;5592;49.234;7.268;2023-02-01T10:30:24;17.73;;;3.47;;
11078;SDS011;5592;49.234;7.268;2023-02-01T10:32:55;18.67;;;4.13;;
11078;SDS011;5592;49.234;7.268;2023-02-01T10:35:24;18.57;;;3.27;;
11078;SDS011;5592;49.234;7.268;2023-02-01T10:37:54;12.10;;;3.20;;
11078;SDS011;5592;49.234;7.268;2023-02-01T10:40:26;9.07;;;2.70;;
11078;SDS011;5592;49.234;7.268;2023-02-01T10:43:01;14.37;;;3.00;;
11078;SDS011;5592;49.234;7.268;2023-02-01T10:45:28;16.80;;;3.30;;
11078;SDS011;5592;49.234;7.268;2023-02-01T10:47:56;17.17;;;3.10;;
11078;SDS011;5592;49.234;7.268;2023-02-01T10:50:35;10.17;;;2.93;;
11078;SDS011;5592;49.234;7.268;2023-02-01T10:53:18;17.33;;;3.00;;
11078;SDS011;5592;49.234;7.268;2023-02-01T10:55:50;17.23;;;3.70;;
11078;SDS011;5592;49.234;7.268;2023-02-01T10:58:19;15.53;;;3.43;;
11078;SDS011;5592;49.234;7.268;2023-02-01T11:01:06;21.10;;;3.50;;
11078;SDS011;5592;49.234;7.268;2023-02-01T11:06:10;17.23;;;3.27;;
11078;SDS011;5592;49.234;7.268;2023-02-01T11:08:45;15.33;;;3.13;;
11078;SDS011;5592;49.234;7.268;2023-02-01T11:11:13;17.33;;;4.07;;
11078;SDS011;5592;49.234;7.268;2023-02-01T11:13:39;13.27;;;3.17;;
11078;SDS011;5592;49.234;7.268;2023-02-01T11:16:10;16.60;;;3.53;;
11078;SDS011;5592;49.234;7.268;2023-02-01T11:18:37;11.53;;;2.20;;
11078;SDS011;5592;49.234;7.268;2023-02-01T11:21:09;5.43;;;2.10;;
11078;SDS011;5592;49.234;7.268;2023-02-01T11:23:40;14.83;;;3.20;;
11078;SDS011;5592;49.234;7.268;2023-02-01T11:26:23;19.10;;;3.77;;
11078;SDS011;5592;49.234;7.268;2023-02-01T11:28:53;12.80;;;2.90;;
11078;SDS011;5592;49.234;7.268;2023-02-01T11:31:24;18.37;;;3.13;;
11078;SDS011;5592;49.234;7.268;2023-02-01T11:33:53;17.47;;;3.17;;
11078;SDS011;5592;49.234;7.268;2023-02-01T11:36:28;11.60;;;2.40;;
11078;SDS011;5592;49.234;7.268;2023-02-01T11:41:41;14.87;;;2.77;;
11078;SDS011;5592;49.234;7.268;2023-02-01T11:44:45;13.83;;;3.00;;
11078;SDS011;5592;49.234;7.268;2023-02-01T11:49:43;17.50;;;3.07;;
11078;SDS011;5592;49.234;7.268;2023-02-01T12:04:04;11.73;;;3.17;;
11078;SDS011;5592;49.234;7.268;2023-02-01T12:07:08;14.23;;;2.90;;
11078;SDS011;5592;49.234;7.268;2023-02-01T12:18:29;9.83;;;2.57;;
11078;SDS011;5592;49.234;7.268;2023-02-01T12:21:17;6.20;;;2.03;;
11078;SDS011;5592;49.234;7.268;2023-02-01T12:31:38;12.03;;;3.33;;
11078;SDS011;5592;49.234;7.268;2023-02-01T12:40:02;10.90;;;2.33;;
11078;SDS011;5592;49.234;7.268;2023-02-01T12:42:40;14.03;;;2.90;;
11078;SDS011;5592;49.234;7.268;2023-02-01T12:45:13;12.20;;;2.93;;
11078;SDS011;5592;49.234;7.268;2023-02-01T12:47:59;14.87;;;2.80;;
11078;SDS011;5592;49.234;7.268;2023-02-01T12:50:53;17.83;;;3.30;;
11078;SDS011;5592;49.234;7.268;2023-02-01T12:56:09;14.63;;;2.60;;
11078;SDS011;5592;49.234;7.268;2023-02-01T12:58:50;10.23;;;2.80;;
11078;SDS011;5592;49.234;7.268;2023-02-01T13:06:43;10.83;;;3.03;;
11078;SDS011;5592;49.234;7.268;2023-02-01T13:09:17;21.60;;;3.10;;
11078;SDS011;5592;49.234;7.268;2023-02-01T13:11:51;15.00;;;2.93;;
11078;SDS011;5592;49.234;7.268;2023-02-01T13:16:45;8.67;;;2.43;;
11078;SDS011;5592;49.234;7.268;2023-02-01T13:19:57;9.33;;;2.57;;
11078;SDS011;5592;49.234;7.268;2023-02-01T13:22:39;17.17;;;2.90;;
11078;SDS011;5592;49.234;7.268;2023-02-01T13:27:56;8.63;;;2.40;;
11078;SDS011;5592;49.234;7.268;2023-02-01T13:30:36;21.37;;;3.50;;
11078;SDS011;5592;49.234;7.268;2023-02-01T13:44:50;11.80;;;2.33;;
11078;SDS011;5592;49.234;7.268;2023-02-01T13:47:38;11.13;;;2.90;;
11078;SDS011;5592;49.234;7.268;2023-02-01T13:55:41;12.63;;;2.33;;
11078;SDS011;5592;49.234;7.268;2023-02-01T13:58:17;11.10;;;2.70;;
11078;SDS011;5592;49.234;7.268;2023-02-01T14:00:48;12.97;;;2.83;;
11078;SDS011;5592;49.234;7.268;2023-02-01T14:03:16;17.73;;;3.00;;
11078;SDS011;5592;49.234;7.268;2023-02-01T14:11:04;11.13;;;2.67;;
11078;SDS011;5592;49.234;7.268;2023-02-01T14:13:31;17.90;;;3.53;;
11078;SDS011;5592;49.234;7.268;2023-02-01T14:18:56;11.63;;;2.90;;
11078;SDS011;5592;49.234;7.268;2023-02-01T14:21:27;12.97;;;2.87;;
11078;SDS011;5592;49.234;7.268;2023-02-01T14:26:46;28.93;;;4.00;;
11078;SDS011;5592;49.234;7.268;2023-02-01T14:31:51;15.77;;;2.77;;
11078;SDS011;5592;49.234;7.268;2023-02-01T14:34:30;13.63;;;2.90;;
11078;SDS011;5592;49.234;7.268;2023-02-01T14:58:16;11.23;;;2.80;;
11078;SDS011;5592;49.234;7.268;2023-02-01T15:06:49;14.00;;;2.73;;
11078;SDS011;5592;49.234;7.268;2023-02-01T15:17:48;11.23;;;3.13;;
11078;SDS011;5592;49.234;7.268;2023-02-01T15:23:01;10.77;;;2.87;;
11078;SDS011;5592;49.234;7.268;2023-02-01T15:25:30;10.03;;;2.80;;
11078;SDS011;5592;49.234;7.268;2023-02-01T15:28:03;19.67;;;3.10;;
11078;SDS011;5592;49.234;7.268;2023-02-01T15:30:32;14.97;;;2.83;;
11078;SDS011;5592;49.234;7.268;2023-02-01T15:43:39;13.10;;;2.70;;
11078;SDS011;5592;49.234;7.268;2023-02-01T15:46:15;14.10;;;3.03;;
11078;SDS011;5592;49.234;7.268;2023-02-01T15:48:49;7.40;;;2.80;;
11078;SDS011;5592;49.234;7.268;2023-02-01T15:51:20;11.47;;;2.30;;
11078;SDS011;5592;49.234;7.268;2023-02-01T15:53:50;15.80;;;3.30;;
11078;SDS011;5592;49.234;7.268;2023-02-01T15:56:26;9.50;;;2.57;;
11078;SDS011;5592;49.234;7.268;2023-02-01T15:58:59;13.17;;;2.83;;
11078;SDS011;5592;49.234;7.268;2023-02-01T16:01:26;7.67;;;2.70;;
11078;SDS011;5592;49.234;7.268;2023-02-01T16:06:38;13.23;;;2.30;;
11078;SDS011;5592;49.234;7.268;2023-02-01T16:09:12;16.83;;;2.27;;
11078;SDS011;5592;49.234;7.268;2023-02-01T16:11:47;8.93;;;2.37;;
11078;SDS011;5592;49.234;7.268;2023-02-01T16:14:16;14.30;;;2.33;;
11078;SDS011;5592;49.234;7.268;2023-02-01T16:16:42;14.30;;;2.87;;
11078;SDS011;5592;49.234;7.268;2023-02-01T16:19:08;15.07;;;3.70;;
11078;SDS011;5592;49.234;7.268;2023-02-01T16:21:33;13.67;;;3.20;;
11078;SDS011;5592;49.234;7.268;2023-02-01T16:23:59;11.37;;;2.70;;
11078;SDS011;5592;49.234;7.268;2023-02-01T16:26:28;5.60;;;2.27;;
11078;SDS011;5592;49.234;7.268;2023-02-01T16:28:56;15.23;;;2.60;;
11078;SDS011;5592;49.234;7.268;2023-02-01T16:31:25;15.50;;;2.80;;
11078;SDS011;5592;49.234;7.268;2023-02-01T16:33:53;13.83;;;2.33;;
11078;SDS011;5592;49.234;7.268;2023-02-01T16:36:19;7.67;;;1.93;;
11078;SDS011;5592;49.234;7.268;2023-02-01T16:38:45;7.37;;;2.80;;
11078;SDS011;5592;49.234;7.268;2023-02-01T16:41:14;10.73;;;2.40;;
11078;SDS011;5592;49.234;7.268;2023-02-01T16:43:41;17.00;;;3.43;;
11078;SDS011;5592;49.234;7.268;2023-02-01T16:46:11;12.07;;;2.93;;
11078;SDS011;5592;49.234;7.268;2023-02-01T16:48:45;11.20;;;2.20;;
11078;SDS011;5592;49.234;7.268;2023-02-01T16:51:15;14.97;;;2.17;;
11078;SDS011;5592;49.234;7.268;2023-02-01T16:53:41;14.33;;;2.60;;
11078;SDS011;5592;49.234;7.268;2023-02-01T16:56:10;18.23;;;3.00;;
11078;SDS011;5592;49.234;7.268;2023-02-01T16:58:39;11.87;;;2.53;;
11078;SDS011;5592;49.234;7.268;2023-02-01T17:01:07;10.87;;;2.60;;
11078;SDS011;5592;49.234;7.268;2023-02-01T17:03:37;19.97;;;2.30;;
11078;SDS011;5592;49.234;7.268;2023-02-01T17:06:03;16.33;;;2.70;;
11078;SDS011;5592;49.234;7.268;2023-02-01T17:08:31;11.77;;;2.30;;
11078;SDS011;5592;49.234;7.268;2023-02-01T17:10:58;15.27;;;2.70;;
11078;SDS011;5592;49.234;7.268;2023-02-01T17:13:24;15.70;;;2.77;;
11078;SDS011;5592;49.234;7.268;2023-02-01T17:15:52;18.50;;;2.90;;
11078;SDS011;5592;49.234;7.268;2023-02-01T17:18:29;15.30;;;3.40;;
11078;SDS011;5592;49.234;7.268;2023-02-01T17:20:58;12.07;;;2.63;;
11078;SDS011;5592;49.234;7.268;2023-02-01T17:23:25;13.10;;;2.30;;
11078;SDS011;5592;49.234;7.268;2023-02-01T17:25:51;13.83;;;2.97;;
11078;SDS011;5592;49.234;7.268;2023-02-01T17:28:17;9.27;;;1.80;;
11078;SDS011;5592;49.234;7.268;2023-02-01T17:30:44;17.03;;;2.73;;
11078;SDS011;5592;49.234;7.268;2023-02-01T17:33:16;8.30;;;3.03;;
11078;SDS011;5592;49.234;7.268;2023-02-01T17:35:50;12.53;;;2.40;;
11078;SDS011;5592;49.234;7.268;2023-02-01T17:38:17;11.40;;;2.90;;
11078;SDS011;5592;49.234;7.268;2023-02-01T17:40:43;14.50;;;2.70;;
11078;SDS011;5592;49.234;7.268;2023-02-01T17:43:10;9.77;;;2.40;;
11078;SDS011;5592;49.234;7.268;2023-02-01T17:45:40;19.80;;;2.70;;
11078;SDS011;5592;49.234;7.268;2023-02-01T17:48:18;11.23;;;3.50;;
11078;SDS011;5592;49.234;7.268;2023-02-01T17:50:45;15.53;;;3.03;;
11078;SDS011;5592;49.234;7.268;2023-02-01T17:53:14;22.73;;;2.97;;
11078;SDS011;5592;49.234;7.268;2023-02-01T17:55:41;14.90;;;2.50;;
11078;SDS011;5592;49.234;7.268;2023-02-01T17:58:13;17.37;;;2.63;;
11078;SDS011;5592;49.234;7.268;2023-02-01T18:00:40;22.37;;;2.90;;
11078;SDS011;5592;49.234;7.268;2023-02-01T18:03:08;7.17;;;2.20;;
11078;SDS011;5592;49.234;7.268;2023-02-01T18:05:47;13.30;;;2.70;;
11078;SDS011;5592;49.234;7.268;2023-02-01T18:08:16;10.30;;;2.60;;
11078;SDS011;5592;49.234;7.268;2023-02-01T18:10:42;19.90;;;3.47;;
11078;SDS011;5592;49.234;7.268;2023-02-01T18:13:08;14.50;;;3.37;;
11078;SDS011;5592;49.234;7.268;2023-02-01T18:15:36;16.60;;;3.33;;
11078;SDS011;5592;49.234;7.268;2023-02-01T18:18:03;17.53;;;2.77;;
11078;SDS011;5592;49.234;7.268;2023-02-01T18:20:29;12.30;;;3.47;;
11078;SDS011;5592;49.234;7.268;2023-02-01T18:22:59;9.57;;;2.90;;